Terminal Aerodrome Forecast
Issued by NWS

Home | Current Version | Previous Version | Text Only | Print | Product List | Glossary On
Versions: 1 2 3 4 5 6 7 8 9 10 11 12 13 14 15 16 17 18 19 20 21 22 23 24 25 26 27 28 29 30
691
FTUS43 KDLH 151731
TAFHIB
TAF
KHIB 151731Z 1518/1618 15004KT P6SM SCT020
     FM160600 12006KT P6SM BKN090
     FM161300 12005KT 6SM -SHRA SCT020 OVC035
     FM161500 12008KT 6SM -SHRA BR OVC018=

USA.gov is the U.S. government's official web portal to all federal, state and local government web resources and services.